HS9DMC-13 Weather Reports


time (UTC)temp
C
wind
direction
speed
KPH
gust
KPH
rain 1hr
cm
rain 24hr
cm
rain mn
cm
humidity
%
barometer
mb
20260503010005 32 198 4.8 4.8 0.00 0.00 0.00 68 1008.7
20260503005705 31 243 1.6 3.2 0.00 0.00 0.00 70 1008.6
20260503005405 31 207 3.2 4.8 0.00 0.00 0.00 70 1008.6
20260503005104 31 180 0.0 1.6 0.00 0.00 0.00 72 1008.6
20260503004804 30 207 0.0 4.8 0.00 0.00 0.00 72 1008.7
20260503004204 30 171 0.0 4.8 0.00 0.00 0.00 74 1008.6
20260503003905 29 162 0.0 4.8 0.00 0.00 0.00 75 1008.5
20260503003604 29 204 1.6 3.2 0.00 0.00 0.00 75 1008.5
20260503003304 28 184 3.2 3.2 0.00 0.00 0.00 76 1008.4
20260503003004 28 42 0.0 1.6 0.00 0.00 0.05 77 1008.4
20260503002704 28 168 1.6 4.8 0.00 0.00 0.05 78 1008.4
20260503002404 27 162 0.0 0.0 0.00 0.00 0.05 78 1008.3
20260503002103 27 182 0.0 0.0 0.00 0.00 0.05 79 1008.2
20260503001803 27 193 0.0 0.0 0.00 0.00 0.05 79 1008.1
20260503001503 27 180 0.0 0.0 0.00 0.00 0.05 79 1008.2
20260503001203 27 180 0.0 0.0 0.00 0.00 0.05 79 1008.1
20260503000903 27 225 0.0 0.0 0.00 0.00 0.05 79 1008.2
20260503000603 27 180 0.0 0.0 0.00 0.00 0.05 79 1008.2
20260503000304 27 270 0.0 0.0 0.00 0.00 0.05 80 1008.2
20260503000003 27 45 0.0 0.0 0.00 0.00 0.05 80 1008.1
20260502235703 26 225 0.0 0.0 0.00 0.00 0.05 80 1008.1
20260502235402 26 49 0.0 0.0 0.00 0.00 0.05 80 1008.0
20260502235102 26 45 0.0 0.0 0.00 0.00 0.05 80 1007.9
20260502234803 26 139 0.0 0.0 0.00 0.00 0.05 80 1007.9
20260502234202 26 189 0.0 0.0 0.00 0.00 0.05 80 1007.8
20260502231758 26 180 0.0 0.0 0.00 0.00 0.00 80 1007.6
20260502231458 26 180 0.0 0.0 0.00 0.00 0.00 80 1007.7
20260502231158 26 135 0.0 0.0 0.00 0.00 0.00 80 1007.6
20260502230859 26 99 0.0 0.0 0.00 0.00 0.00 80 1007.6
20260502230559 26 180 0.0 0.0 0.00 0.00 0.00 80 1007.6
20260502230258 26 180 0.0 0.0 0.00 0.00 0.00 80 1007.4
20260502225958 26 180 0.0 0.0 0.00 0.00 0.00 79 1007.4
20260502225702 26 135 0.0 0.0 0.00 0.00 0.00 79 1007.3
20260502225357 26 135 0.0 0.0 0.00 0.00 0.00 80 1007.3
20260502225058 26 180 0.0 0.0 0.00 0.00 0.00 80 1007.3
20260502224757 26 180 0.0 0.0 0.00 0.00 0.00 79 1007.2
20260502224157 26 225 0.0 0.0 0.00 0.00 0.00 79 1007.2
20260502223857 26 189 0.0 0.0 0.00 0.00 0.00 79 1007.1
20260502223557 26 171 0.0 0.0 0.00 0.00 0.00 79 1007.1
20260502223257 26 135 0.0 3.2 0.00 0.00 0.00 78 1007.2
20260502222957 26 180 3.2 3.2 0.00 0.00 0.00 79 1007.1
20260502222656 26 220 0.0 0.0 0.00 0.00 0.00 79 1007.2
20260502222356 26 227 0.0 0.0 0.00 0.00 0.00 79 1007.1
20260502222056 27 220 0.0 3.2 0.00 0.00 0.00 78 1007.1
20260502221758 27 227 0.0 3.2 0.00 0.00 0.00 79 1006.9
20260502221457 27 216 0.0 0.0 0.00 0.00 0.00 78 1007.0
20260502221156 27 180 0.0 0.0 0.00 0.00 0.00 79 1006.8
20260502220856 27 42 0.0 0.0 0.00 0.00 0.00 79 1006.8
20260502220556 27 180 0.0 0.0 0.00 0.00 0.00 79 1006.8
20260502220256 27 355 0.0 0.0 0.00 0.00 0.00 79 1006.7
20260502215957 27 90 0.0 0.0 0.00 0.00 0.00 78 1006.7
20260502215657 27 180 0.0 0.0 0.00 0.00 0.00 79 1006.7
20260502215355 27 42 0.0 0.0 0.00 0.00 0.00 79 1006.7
20260502215055 27 312 0.0 0.0 0.00 0.00 0.00 78 1006.7
20260502214755 27 315 0.0 0.0 0.00 0.00 0.00 78 1006.6
20260502214155 27 118 0.0 0.0 0.00 0.00 0.00 78 1006.4
20260502213855 27 225 0.0 0.0 0.00 0.00 0.00 78 1006.3
20260502213555 27 225 0.0 0.0 0.00 0.00 0.00 78 1006.4
20260502213254 27 180 0.0 0.0 0.00 0.00 0.00 78 1006.3
20260502212954 27 180 0.0 0.0 0.00 0.00 0.00 78 1006.1
20260502212655 27 225 0.0 0.0 0.00 0.00 0.00 79 1006.3
20260502212354 27 180 0.0 0.0 0.00 0.00 0.00 79 1006.3
20260502212054 27 182 0.0 0.0 0.00 0.00 0.00 79 1006.3
20260502211755 27 180 0.0 0.0 0.00 0.00 0.00 79 1006.3
20260502211151 27 225 0.0 0.0 0.00 0.00 0.00 79 1006.3
20260502210851 27 180 0.0 0.0 0.00 0.00 0.00 79 1006.3
20260502210551 27 180 0.0 0.0 0.00 0.00 0.00 78 1006.3
20260502210250 27 312 0.0 0.0 0.00 0.00 0.00 79 1006.2
20260502205950 27 225 0.0 0.0 0.00 0.00 0.00 79 1006.2
20260502205650 27 270 0.0 0.0 0.00 0.00 0.00 78 1006.2
20260502205350 27 180 0.0 0.0 0.00 0.00 0.00 78 1006.1
20260502205050 27 180 0.0 0.0 0.00 0.00 0.00 78 1006.2
20260502204750 27 225 0.0 0.0 0.00 0.00 0.00 78 1006.1
20260502204150 27 231 0.0 0.0 0.00 0.00 0.00 78 1006.2
20260502203850 27 225 0.0 0.0 0.00 0.00 0.00 78 1006.3
20260502203549 27 135 0.0 0.0 0.00 0.00 0.00 78 1006.1
20260502203249 27 90 0.0 0.0 0.00 0.00 0.00 78 1006.0
20260502202949 27 58 0.0 0.0 0.00 0.00 0.00 78 1006.1
20260502202649 27 42 0.0 0.0 0.00 0.00 0.00 78 1006.1
20260502202349 27 135 0.0 0.0 0.00 0.00 0.00 78 1006.2
20260502202049 27 180 0.0 0.0 0.00 0.00 0.00 78 1006.1
20260502201750 27 180 0.0 0.0 0.00 0.00 0.00 78 1006.1
20260502201449 27 18 0.0 0.0 0.00 0.00 0.00 78 1006.0
20260502201149 27 42 0.0 0.0 0.00 0.00 0.00 79 1006.1
20260502200849 27 45 0.0 0.0 0.00 0.00 0.00 78 1006.1
20260502200548 27 315 0.0 0.0 0.00 0.00 0.00 78 1006.2
20260502200248 27 274 0.0 0.0 0.00 0.00 0.00 78 1006.1
20260502195950 27 225 0.0 0.0 0.00 0.00 0.00 78 1006.2
20260502195649 27 180 0.0 0.0 0.00 0.00 0.00 78 1006.3
20260502195348 27 217 0.0 0.0 0.00 0.00 0.00 78 1006.3
20260502195048 27 180 0.0 0.0 0.00 0.00 0.00 77 1006.3
20260502194748 27 225 0.0 0.0 0.00 0.00 0.00 77 1006.4
20260502194149 27 274 0.0 0.0 0.00 0.00 0.00 78 1006.5
20260502193847 27 135 0.0 0.0 0.00 0.00 0.00 77 1006.6
20260502193547 27 225 0.0 0.0 0.00 0.00 0.00 77 1006.6
20260502193247 27 182 0.0 0.0 0.00 0.00 0.00 77 1006.6
20260502192947 27 180 0.0 0.0 0.00 0.00 0.00 77 1006.7
20260502192647 27 225 0.0 0.0 0.00 0.00 0.00 77 1006.7
20260502192347 27 180 0.0 0.0 0.00 0.00 0.00 77 1006.8
20260502192047 27 180 0.0 0.0 0.00 0.00 0.00 77 1006.9
20260502191747 27 180 0.0 0.0 0.00 0.00 0.00 77 1006.9
20260502191447 27 180 0.0 0.0 0.00 0.00 0.00 77 1007.1
20260502191148 27 355 0.0 0.0 0.00 0.00 0.00 78 1007.1
20260502190846 27 315 0.0 0.0 0.00 0.00 0.00 77 1007.2
20260502190546 27 184 0.0 0.0 0.00 0.00 0.00 77 1007.1
20260502190246 27 182 0.0 0.0 0.00 0.00 0.00 77 1007.2
20260502185946 27 180 0.0 0.0 0.00 0.00 0.00 76 1007.3
20260502185647 27 193 0.0 1.6 0.00 0.00 0.00 77 1007.3
20260502185346 27 198 0.0 1.6 0.00 0.00 0.00 77 1007.3
20260502185046 27 166 0.0 3.2 0.00 0.00 0.00 76 1007.2
20260502184746 27 182 0.0 3.2 0.00 0.00 0.00 76 1007.2
20260502184146 27 207 0.0 0.0 0.00 0.00 0.00 76 1007.3
20260502183845 27 225 0.0 0.0 0.00 0.00 0.00 76 1007.5
20260502183545 27 180 0.0 0.0 0.00 0.00 0.00 76 1007.5
20260502183245 27 180 0.0 0.0 0.00 0.00 0.00 76 1007.6
20260502182945 27 180 0.0 0.0 0.00 0.00 0.00 76 1007.6
20260502182645 27 135 0.0 0.0 0.00 0.00 0.00 76 1007.6
20260502182345 27 225 0.0 0.0 0.00 0.00 0.00 76 1007.7
20260502182045 28 225 0.0 0.0 0.00 0.00 0.00 76 1007.8
20260502181745 28 180 0.0 0.0 0.00 0.00 0.00 76 1007.8
20260502181444 28 198 0.0 0.0 0.00 0.00 0.00 76 1007.9
20260502181144 28 225 0.0 0.0 0.00 0.00 0.00 76 1007.9
20260502180846 28 225 0.0 0.0 0.00 0.00 0.00 76 1007.9
20260502180544 28 225 0.0 0.0 0.00 0.00 0.00 76 1007.9
20260502180244 28 180 0.0 0.0 0.00 0.00 0.00 75 1008.0
20260502170243 28 225 0.0 3.2 0.00 0.00 0.00 74 1008.7
20260502164141 28 135 0.0 0.0 0.00 0.00 0.00 74 1008.8
20260502163841 28 45 0.0 0.0 0.00 0.00 0.00 74 1008.8
20260502163541 28 148 0.0 0.0 0.00 0.00 0.00 73 1008.7
20260502163241 28 319 0.0 0.0 0.00 0.00 0.00 74 1008.8
20260502162941 28 45 0.0 0.0 0.00 0.00 0.00 73 1008.9
20260502162641 28 289 0.0 0.0 0.00 0.00 0.00 74 1008.9
20260502162341 28 315 0.0 0.0 0.00 0.00 0.00 74 1008.9
20260502162042 28 0 0.0 0.0 0.00 0.00 0.00 73 1008.9
20260502161740 28 0 0.0 0.0 0.00 0.00 0.00 74 1008.9
20260502161440 28 290 0.0 0.0 0.00 0.00 0.00 73 1008.8
20260502161140 28 270 0.0 0.0 0.00 0.00 0.00 74 1009.0
20260502160840 28 290 0.0 0.0 0.00 0.00 0.00 73 1008.9
20260502160540 28 180 0.0 0.0 0.00 0.00 0.00 73 1009.0
20260502160240 28 180 0.0 1.6 0.00 0.00 0.00 73 1008.9
20260502152338 28 193 1.6 3.2 0.00 0.00 0.00 70 1008.9
20260502152043 28 180 0.0 0.0 0.00 0.00 0.00 70 1008.9
20260502151738 28 207 0.0 3.2 0.00 0.00 0.00 70 1008.9
20260502151438 29 135 0.0 4.8 0.00 0.00 0.00 70 1008.9
20260502151138 29 180 0.0 4.8 0.00 0.00 0.00 70 1008.9
20260502150838 29 198 1.6 4.8 0.00 0.00 0.00 70 1008.9
20260502150538 29 211 3.2 4.8 0.00 0.00 0.00 70 1008.7
20260502150238 29 175 0.0 3.2 0.00 0.00 0.00 70 1008.7
20260502130530 30 67 0.0 0.0 0.00 0.00 0.00 69 1007.4
20260502130229 30 92 0.0 3.2 0.00 0.00 0.00 69 1007.4
20260502123529 30 153 0.0 1.6 0.00 0.00 0.00 69 1007.1
20260502123228 30 231 0.0 8.0 0.00 0.00 0.00 69 1007.1
20260502122928 30 32 0.0 8.0 0.00 0.00 0.00 69 1007.0
20260502122629 30 337 0.0 1.6 0.00 0.00 0.00 69 1006.9
20260502122328 30 54 0.0 1.6 0.00 0.00 0.00 69 1006.8
20260502122028 30 22 0.0 3.2 0.00 0.00 0.00 69 1006.8
20260502121728 30 0 0.0 0.0 0.00 0.00 0.00 69 1006.7
20260502121428 30 30 0.0 4.8 0.00 0.00 0.00 70 1006.7
20260502121129 30 31 1.6 3.2 0.00 0.00 0.00 69 1006.6
20260502120827 30 11 0.0 1.6 0.00 0.00 0.00 69 1006.5
20260502120527 30 67 0.0 1.6 0.00 0.00 0.00 69 1006.4
20260502120229 30 256 0.0 6.4 0.00 0.00 0.00 69 1006.3
20260502115927 30 38 3.2 6.4 0.00 0.00 0.00 69 1006.1
20260502115627 30 57 3.2 4.8 0.00 0.00 0.00 69 1006.1
20260502115327 30 49 1.6 3.2 0.00 0.00 0.00 68 1006.0
20260502114727 30 45 3.2 4.8 0.00 0.00 0.00 68 1005.9
20260502114127 30 0 1.6 6.4 0.00 0.00 0.00 68 1005.8
20260502113828 30 357 1.6 6.4 0.00 0.00 0.00 68 1005.7
20260502113528 30 54 3.2 6.4 0.00 0.00 0.00 69 1005.8
20260502113226 30 10 3.2 6.4 0.00 0.00 0.00 68 1005.8
20260502112926 30 42 4.8 4.8 0.00 0.00 0.00 68 1005.8
20260502112627 30 105 0.0 4.8 0.00 0.00 0.00 68 1005.7
20260502112326 30 51 0.0 6.4 0.00 0.00 0.00 68 1005.8
20260502112026 30 45 4.8 6.4 0.00 0.00 0.00 68 1005.7
20260502111726 30 95 0.0 4.8 0.00 0.00 0.00 68 1005.6
20260502111426 30 32 1.6 4.8 0.00 0.00 0.00 67 1005.7
20260502111126 30 138 1.6 8.0 0.00 0.00 0.00 67 1005.7
20260502110825 30 70 4.8 6.4 0.00 0.00 0.00 67 1005.7
20260502110525 30 353 0.0 8.0 0.00 0.00 0.00 67 1005.7
20260502110405 30 40 8.0 8.0 0.00 0.00 0.00 67 1005.7
20260502110205 30 27 0.0 9.7 0.00 0.00 0.00 66 1005.7
20260502105905 30 47 4.8 9.7 0.00 0.00 0.00 67 1005.7
20260502105605 30 58 3.2 6.4 0.00 0.00 0.00 68 1005.7
20260502105306 30 27 4.8 8.0 0.00 0.00 0.00 67 1005.6
20260502105005 30 31 3.2 11.3 0.00 0.00 0.00 67 1005.6
20260502104445 31 40 1.6 6.4 0.00 0.00 0.00 66 1005.5
20260502104145 31 51 4.8 8.0 0.00 0.00 0.00 66 1005.5
20260502103844 31 67 6.4 9.7 0.00 0.00 0.00 66 1005.5
20260502103544 31 56 8.0 9.7 0.00 0.00 0.00 66 1005.5
20260502103244 31 56 4.8 9.7 0.00 0.00 0.00 66 1005.6
20260502102944 31 0 3.2 8.0 0.00 0.00 0.00 66 1005.5
20260502102644 31 45 4.8 8.0 0.00 0.00 0.00 66 1005.6
20260502102344 31 47 1.6 8.0 0.00 0.00 0.00 65 1005.4
20260502102044 31 351 3.2 6.4 0.00 0.00 0.00 65 1005.4
20260502101744 31 0 4.8 8.0 0.00 0.00 0.00 64 1005.4
20260502101443 31 54 8.0 8.0 0.00 0.00 0.00 64 1005.5
20260502101143 31 50 4.8 8.0 0.00 0.00 0.00 64 1005.4
20260502100843 31 67 6.4 9.7 0.00 0.00 0.00 64 1005.4
20260502100543 31 20 4.8 11.3 0.00 0.00 0.00 63 1005.1
20260502100243 31 56 9.7 11.3 0.00 0.00 0.00 63 1005.2
20260502091451 32 38 4.8 9.7 0.00 0.00 0.00 59 1004.9
20260502091153 33 2 4.8 8.0 0.00 0.00 0.00 59 1004.9
20260502090851 33 352 4.8 9.7 0.00 0.00 0.00 59 1005.0
20260502090551 33 9 4.8 11.3 0.00 0.00 0.00 59 1005.1
20260502090251 33 5 3.2 11.3 0.00 0.00 0.00 58 1005.0
20260502071321 34 40 14.5 19.3 0.00 0.00 0.00 55 1005.9
20260502071221 34 20 6.4 19.3 0.00 0.00 0.00 55 1005.8
20260502071022 34 45 16.1 16.1 0.00 0.00 0.00 56 1005.9
20260502070751 34 33 6.4 17.7 0.00 0.00 0.00 55 1006.0
20260502070701 34 56 16.1 17.7 0.00 0.00 0.00 55 1006.0
20260502070511 34 42 6.4 17.7 0.00 0.00 0.00 55 1006.0
20260502070351 34 9 17.7 19.3 0.00 0.00 0.00 54 1005.9
20260502070021 34 9 19.3 19.3 0.00 0.00 0.00 55 1006.1
20260502065921 34 31 6.4 17.7 0.00 0.00 0.00 55 1006.1
20260502065901 34 351 16.1 17.7 0.00 0.00 0.00 55 1006.1
20260502065801 34 31 4.8 17.7 0.00 0.00 0.00 55 1006.1
20260502065500 34 2 12.9 14.5 0.00 0.00 0.00 56 1006.2
20260502065421 34 357 4.8 14.5 0.00 0.00 0.00 56 1006.2
20260502065330 34 15 14.5 14.5 0.00 0.00 0.00 56 1006.2
20260502065230 33 32 3.2 14.5 0.00 0.00 0.00 56 1006.2
20260502065101 33 6 11.3 17.7 0.00 0.00 0.00 55 1006.2
20260502065020 33 6 3.2 17.7 0.00 0.00 0.00 56 1006.1
20260502064720 33 11 8.0 17.7 0.00 0.00 0.00 55 1006.2
20260502064430 33 318 9.7 20.9 0.00 0.00 0.00 55 1006.2
20260502064130 33 35 9.7 20.9 0.00 0.00 0.00 56 1006.3
20260502064110 33 49 20.9 20.9 0.00 0.00 0.00 56 1006.3
20260502063950 33 45 8.0 17.7 0.00 0.00 0.00 56 1006.2
20260502063920 33 42 17.7 17.7 0.00 0.00 0.00 55 1006.3
20260502063840 33 45 4.8 16.1 0.00 0.00 0.00 56 1006.3
20260502063630 33 63 14.5 16.1 0.00 0.00 0.00 56 1006.4
20260502063330 33 42 11.3 14.5 0.00 0.00 0.00 56 1006.5
20260502063310 33 32 3.2 14.5 0.00 0.00 0.00 57 1006.5
20260502063220 33 4 12.9 14.5 0.00 0.00 0.00 57 1006.5
20260502063050 33 0 4.8 14.5 0.00 0.00 0.00 56 1006.6
20260502062750 33 12 4.8 14.5 0.00 0.00 0.00 55 1006.7
20260502062700 33 42 14.5 14.5 0.00 0.00 0.00 55 1006.7
20260502062432 33 45 6.4 14.5 0.00 0.00 0.00 55 1006.9
20260502062130 33 56 9.7 17.7 0.00 0.00 0.00 55 1007.0
20260502061829 33 45 6.4 17.7 0.00 0.00 0.00 55 1007.0
20260502061809 33 72 17.7 17.7 0.00 0.00 0.00 55 1007.0
20260502061549 33 60 8.0 12.9 0.00 0.00 0.00 55 1007.2
20260502061250 33 38 9.7 12.9 0.00 0.00 0.00 53 1007.1
20260502060649 34 13 9.7 16.1 0.00 0.00 0.00 52 1007.3
20260502060349 35 45 8.0 27.4 0.00 0.00 0.00 51 1007.2
20260502060049 35 40 12.9 27.4 0.00 0.00 0.00 50 1007.1
20260502060019 35 42 27.4 27.4 0.00 0.00 0.00 50 1007.1
20260502055849 35 40 14.5 14.5 0.00 0.00 0.00 50 1007.1
20260502055728 35 35 6.4 14.5 0.00 0.00 0.00 50 1007.2
20260502055428 35 54 4.8 14.5 0.00 0.00 0.00 48 1007.0
20260502055328 35 45 14.5 14.5 0.00 0.00 0.00 48 1007.0
20260502055038 35 22 6.4 14.5 0.00 0.00 0.00 48 1007.1
20260502054738 35 54 8.0 14.5 0.00 0.00 0.00 48 1007.1
20260502054439 35 58 4.8 14.5 0.00 0.00 0.00 47 1007.1
20260502054358 35 49 14.5 14.5 0.00 0.00 0.00 47 1007.1
20260502054138 35 16 4.8 12.9 0.00 0.00 0.00 48 1007.1
20260502053838 35 60 8.0 9.7 0.00 0.00 0.00 47 1007.2
20260502053538 35 56 8.0 9.7 0.00 0.00 0.00 49 1007.3
20260502053238 35 40 4.8 9.7 0.00 0.00 0.00 49 1007.3
20260502052938 35 42 8.0 16.1 0.00 0.00 0.00 48 1007.3
20260502052638 35 85 9.7 9.7 0.00 0.00 0.00 50 1007.3
20260502052227 35 24 9.7 9.7 0.00 0.00 0.00 52 1007.4